Time;durP1;ratioP1;P1;durP2;ratioP2;P2;SDS_P1;SDS_P2;PMS_P1;PMS_P2;Temp;Humidity;BMP_temperature;BMP_pressure;BME280_temperature;BME280_humidity;BME280_pressure;Samples;Min_cycle;Max_cycle;Signal;HPM_P1;HPM_P2
2023/08/08 00:01:28;;;;;;;2.25;1.73;;;13.60;1.00;;;;;;7385699;19;20014;-69
2023/08/08 00:03:58;;;;;;;2.63;1.58;;;13.60;1.00;;;;;;7384106;19;20032;-69
2023/08/08 00:06:28;;;;;;;2.75;1.48;;;13.60;1.00;;;;;;7383633;19;20031;-69
2023/08/08 00:08:58;;;;;;;4.50;1.60;;;13.60;1.00;;;;;;7387634;19;20096;-68
2023/08/08 00:11:28;;;;;;;4.82;1.33;;;13.60;1.00;;;;;;7383505;19;20356;-69
2023/08/08 00:13:58;;;;;;;2.95;1.65;;;13.60;1.00;;;;;;7384245;19;20015;-69
2023/08/08 00:16:31;;;;;;;1.73;1.23;;;13.60;1.00;;;;;;7383535;19;20018;-69
2023/08/08 00:19:01;;;;;;;2.17;1.50;;;13.70;1.00;;;;;;7384047;19;20078;-69
2023/08/08 00:21:31;;;;;;;2.97;1.30;;;13.70;1.00;;;;;;7384380;19;20478;-69
2023/08/08 00:24:00;;;;;;;1.83;1.33;;;13.80;1.00;;;;;;7381513;19;20027;-70
2023/08/08 00:26:31;;;;;;;3.47;1.98;;;13.80;1.00;;;;;;7388743;19;20019;-70
2023/08/08 00:29:01;;;;;;;1.95;1.58;;;13.80;1.00;;;;;;7384197;19;20043;-69
2023/08/08 00:31:33;;;;;;;2.10;1.30;;;13.80;1.00;;;;;;7388922;19;20029;-70
2023/08/08 00:34:03;;;;;;;3.70;1.67;;;13.90;1.00;;;;;;7391427;19;20015;-69
2023/08/08 00:36:33;;;;;;;4.00;1.42;;;13.90;1.00;;;;;;7391604;19;20175;-70
2023/08/08 00:39:03;;;;;;;3.40;1.40;;;14.00;1.00;;;;;;7390457;19;20018;-69
2023/08/08 00:41:33;;;;;;;3.15;1.70;;;14.00;1.00;;;;;;7390184;19;20019;-70
2023/08/08 00:44:03;;;;;;;4.28;1.40;;;13.90;1.00;;;;;;7391601;19;20041;-70
2023/08/08 00:46:35;;;;;;;2.80;1.80;;;14.00;1.00;;;;;;7394346;19;20022;-69
2023/08/08 00:49:05;;;;;;;2.17;1.35;;;14.00;1.00;;;;;;7389427;19;20014;-68
2023/08/08 00:51:35;;;;;;;1.95;1.30;;;14.00;1.00;;;;;;7391102;19;20105;-70
2023/08/08 00:54:06;;;;;;;3.00;1.50;;;14.00;1.00;;;;;;7388942;19;20018;-69
2023/08/08 00:56:36;;;;;;;1.63;1.30;;;14.00;1.00;;;;;;7391489;19;20482;-69
2023/08/08 00:59:06;;;;;;;2.53;1.60;;;14.00;1.00;;;;;;7389753;19;20019;-70
2023/08/08 01:01:39;;;;;;;2.13;1.10;;;14.00;1.00;;;;;;7389456;19;20014;-70
2023/08/08 01:04:09;;;;;;;2.85;1.70;;;14.00;1.00;;;;;;7391186;19;20023;-68
2023/08/08 01:06:44;;;;;;;2.10;1.52;;;14.00;1.00;;;;;;7395208;19;20035;-69
2023/08/08 01:09:19;;;;;;;2.33;1.40;;;14.00;1.00;;;;;;7392613;19;20085;-69
2023/08/08 01:11:49;;;;;;;1.85;1.05;;;14.00;1.00;;;;;;7390056;19;20021;-68
2023/08/08 01:14:21;;;;;;;2.65;1.30;;;14.00;1.00;;;;;;7388985;19;20648;-68
2023/08/08 01:16:57;;;;;;;2.85;1.20;;;14.10;1.00;;;;;;7389821;19;20019;-69
2023/08/08 01:19:30;;;;;;;3.63;1.52;;;14.10;1.00;;;;;;7389307;19;20010;-70
2023/08/08 01:22:04;;;;;;;3.53;1.67;;;14.10;1.00;;;;;;7392865;19;20035;-68
2023/08/08 01:24:38;;;;;;;2.10;1.20;;;14.10;1.00;;;;;;7389616;19;20017;-70
2023/08/08 01:27:09;;;;;;;2.27;1.30;;;14.20;1.00;;;;;;7389923;19;20437;-70
2023/08/08 01:29:39;;;;;;;2.78;1.10;;;14.20;1.00;;;;;;7388729;19;20018;-69
2023/08/08 01:32:10;;;;;;;1.85;1.45;;;14.20;1.00;;;;;;7391523;19;20344;-69
2023/08/08 01:34:40;;;;;;;2.05;1.20;;;14.30;1.00;;;;;;7391346;19;20011;-68
2023/08/08 01:37:17;;;;;;;5.20;1.58;;;14.20;1.00;;;;;;7389893;19;20031;-69
2023/08/08 01:39:53;;;;;;;2.33;1.55;;;14.20;1.00;;;;;;7388653;19;20030;-69
2023/08/08 01:42:25;;;;;;;6.38;1.80;;;14.20;1.00;;;;;;7390951;19;20011;-69
2023/08/08 01:44:56;;;;;;;3.38;1.40;;;14.20;1.00;;;;;;7387229;19;20038;-69
2023/08/08 01:47:25;;;;;;;2.63;1.25;;;14.20;1.00;;;;;;7394043;19;20018;-69
2023/08/08 01:49:55;;;;;;;3.70;1.75;;;14.20;1.00;;;;;;7387470;19;20023;-69
2023/08/08 01:52:25;;;;;;;1.50;1.20;;;14.20;1.00;;;;;;7390947;19;20019;-70
2023/08/08 01:54:58;;;;;;;2.05;1.50;;;14.20;1.00;;;;;;7388696;19;20082;-69
2023/08/08 01:57:28;;;;;;;3.22;1.38;;;14.30;1.00;;;;;;7388736;19;20412;-69
2023/08/08 01:59:58;;;;;;;3.28;1.30;;;14.20;1.00;;;;;;7388329;19;20035;-69
2023/08/08 02:02:30;;;;;;;1.67;1.33;;;14.20;1.00;;;;;;7389450;19;20023;-68
2023/08/08 02:05:00;;;;;;;4.43;1.83;;;14.20;1.00;;;;;;7387434;19;20018;-68
2023/08/08 02:07:30;;;;;;;1.95;1.30;;;14.20;1.00;;;;;;7391274;19;20020;-68
2023/08/08 02:10:03;;;;;;;2.25;1.40;;;14.20;1.00;;;;;;7387098;19;20022;-69
2023/08/08 02:12:33;;;;;;;3.60;1.50;;;14.20;1.00;;;;;;7390002;19;20118;-69
2023/08/08 02:15:04;;;;;;;3.55;1.40;;;14.10;1.00;;;;;;7387303;19;20014;-69
2023/08/08 02:17:34;;;;;;;1.67;1.52;;;14.10;1.00;;;;;;7389473;19;20014;-69
2023/08/08 02:20:05;;;;;;;4.32;1.45;;;14.10;1.00;;;;;;7386448;19;20011;-69
2023/08/08 02:22:35;;;;;;;1.73;1.30;;;14.10;1.00;;;;;;7391344;19;20018;-70
2023/08/08 02:25:08;;;;;;;2.08;1.40;;;14.00;1.00;;;;;;7387775;19;20031;-70
2023/08/08 02:27:38;;;;;;;3.40;1.42;;;13.90;1.00;;;;;;7387075;19;20090;-69
2023/08/08 02:30:09;;;;;;;3.28;1.48;;;13.90;1.00;;;;;;7386767;19;20433;-69
2023/08/08 02:32:39;;;;;;;2.60;1.50;;;13.90;1.00;;;;;;7388971;19;20035;-69
2023/08/08 02:35:11;;;;;;;3.08;1.40;;;13.80;1.00;;;;;;7386640;19;20010;-69
2023/08/08 02:37:41;;;;;;;3.30;1.73;;;13.80;1.00;;;;;;7387563;19;20071;-69
2023/08/08 02:40:14;;;;;;;2.33;1.63;;;13.80;1.00;;;;;;7385831;19;20126;-69
2023/08/08 02:42:44;;;;;;;4.07;1.60;;;13.80;1.00;;;;;;7389772;19;20025;-68
2023/08/08 02:45:14;;;;;;;3.40;1.52;;;13.70;1.00;;;;;;7387324;19;20542;-69
2023/08/08 02:47:43;;;;;;;3.65;1.63;;;13.70;1.00;;;;;;7387483;19;20010;-69
2023/08/08 02:50:13;;;;;;;2.70;1.45;;;13.60;1.00;;;;;;7386617;19;20014;-69
2023/08/08 02:52:43;;;;;;;3.10;1.50;;;13.50;1.00;;;;;;7387121;19;20037;-69
2023/08/08 02:55:16;;;;;;;3.80;1.63;;;13.50;1.00;;;;;;7387224;19;20014;-69
2023/08/08 02:57:46;;;;;;;2.58;1.65;;;13.50;1.00;;;;;;7391291;19;20544;-69
2023/08/08 03:00:17;;;;;;;4.65;1.90;;;13.40;1.00;;;;;;7391272;19;20022;-69
2023/08/08 03:02:47;;;;;;;3.42;2.08;;;13.40;1.00;;;;;;7389484;19;20014;-69
2023/08/08 03:05:16;;;;;;;3.83;1.33;;;13.30;1.00;;;;;;7385507;19;20021;-68
2023/08/08 03:07:46;;;;;;;3.10;1.70;;;13.40;1.00;;;;;;7389880;19;20480;-69
2023/08/08 03:10:19;;;;;;;3.38;1.92;;;13.30;1.00;;;;;;7383009;19;20070;-68
2023/08/08 03:12:49;;;;;;;2.55;1.55;;;13.30;1.00;;;;;;7385887;19;20056;-69
2023/08/08 03:15:19;;;;;;;3.83;2.03;;;13.30;1.00;;;;;;7383859;19;20078;-68
2023/08/08 03:17:49;;;;;;;2.22;1.52;;;13.20;1.00;;;;;;7386013;19;20023;-69
2023/08/08 03:20:19;;;;;;;2.25;1.67;;;13.20;1.00;;;;;;7385005;19;20097;-69
2023/08/08 03:22:49;;;;;;;3.17;1.35;;;13.20;1.00;;;;;;7388209;19;20082;-69
2023/08/08 03:25:22;;;;;;;2.33;1.55;;;13.20;1.00;;;;;;7385006;19;20015;-70
2023/08/08 03:27:52;;;;;;;4.50;1.70;;;13.20;1.00;;;;;;7386103;19;20486;-70
2023/08/08 03:30:22;;;;;;;4.55;1.48;;;13.20;1.00;;;;;;7383500;19;20490;-70
2023/08/08 03:32:52;;;;;;;2.83;1.70;;;13.20;1.00;;;;;;7387387;19;20029;-69
2023/08/08 03:35:22;;;;;;;3.15;1.63;;;13.10;1.00;;;;;;7385506;19;20333;-69
2023/08/08 03:37:52;;;;;;;3.58;1.80;;;13.10;1.00;;;;;;7385605;19;20678;-69
2023/08/08 03:40:24;;;;;;;2.42;1.80;;;13.10;1.00;;;;;;7385369;19;20018;-69
2023/08/08 03:42:54;;;;;;;2.33;1.50;;;13.10;1.00;;;;;;7387140;19;20014;-70
2023/08/08 03:45:24;;;;;;;2.13;1.40;;;13.20;1.00;;;;;;7385522;19;20014;-70
2023/08/08 03:47:54;;;;;;;3.17;1.77;;;13.20;1.00;;;;;;7385636;19;20034;-70
2023/08/08 03:50:24;;;;;;;3.47;1.58;;;13.30;1.00;;;;;;7374238;19;20022;-70
2023/08/08 03:52:54;;;;;;;2.55;1.40;;;13.30;1.00;;;;;;7385824;19;20018;-70
2023/08/08 03:55:27;;;;;;;6.38;1.67;;;13.30;1.00;;;;;;7388433;19;20014;-70
2023/08/08 03:57:57;;;;;;;2.53;1.50;;;13.40;1.00;;;;;;7384929;19;20023;-70
2023/08/08 04:00:27;;;;;;;4.50;1.70;;;13.40;1.00;;;;;;7384647;19;20112;-70
2023/08/08 04:02:57;;;;;;;3.85;1.60;;;13.40;1.00;;;;;;7388245;19;20034;-69
2023/08/08 04:05:27;;;;;;;1.85;1.40;;;13.50;1.00;;;;;;7397717;19;20038;-69
2023/08/08 04:07:57;;;;;;;4.10;1.60;;;13.50;1.00;;;;;;7401503;19;20441;-69
2023/08/08 04:10:29;;;;;;;3.25;1.70;;;13.50;1.00;;;;;;7397991;19;20831;-69
2023/08/08 04:12:59;;;;;;;3.35;1.65;;;13.50;1.00;;;;;;7400775;19;20018;-69
2023/08/08 04:15:29;;;;;;;2.55;1.75;;;13.60;1.00;;;;;;7398169;19;20019;-68
2023/08/08 04:17:59;;;;;;;2.53;1.75;;;13.60;1.00;;;;;;7398563;19;20014;-69
2023/08/08 04:20:29;;;;;;;5.65;1.50;;;13.60;1.00;;;;;;7396329;19;20010;-69
2023/08/08 04:22:59;;;;;;;3.50;1.98;;;13.60;1.00;;;;;;7400905;19;20339;-69
2023/08/08 04:25:32;;;;;;;4.50;1.52;;;13.60;1.00;;;;;;7396480;19;20129;-69
2023/08/08 04:28:02;;;;;;;3.97;1.88;;;13.60;1.00;;;;;;7398048;19;20346;-68
2023/08/08 04:30:32;;;;;;;6.30;2.03;;;13.70;1.00;;;;;;7397101;19;20074;-69
2023/08/08 04:33:02;;;;;;;2.40;1.45;;;13.70;1.00;;;;;;7400444;19;20024;-69
2023/08/08 04:35:32;;;;;;;3.75;1.40;;;13.70;1.00;;;;;;7397051;19;20120;-69
2023/08/08 04:38:02;;;;;;;3.95;1.63;;;13.70;1.00;;;;;;7398245;19;20035;-69
2023/08/08 04:40:35;;;;;;;4.03;1.63;;;13.80;1.00;;;;;;7396614;19;20021;-69
2023/08/08 04:43:07;;;;;;;3.22;1.50;;;13.80;1.00;;;;;;7401518;19;20225;-69
2023/08/08 04:45:36;;;;;;;4.07;1.85;;;13.90;1.00;;;;;;7397938;19;20031;-69
2023/08/08 04:48:07;;;;;;;2.33;1.55;;;13.90;1.00;;;;;;7398621;19;20321;-70
2023/08/08 04:50:37;;;;;;;3.55;1.33;;;13.90;1.00;;;;;;7402142;19;20023;-70
2023/08/08 04:53:07;;;;;;;2.40;1.63;;;13.90;1.00;;;;;;7398584;19;20470;-69
2023/08/08 04:55:40;;;;;;;4.18;1.90;;;13.90;1.00;;;;;;7396428;19;20018;-70
2023/08/08 04:58:09;;;;;;;2.75;1.50;;;14.00;1.00;;;;;;7397735;19;20015;-69
2023/08/08 05:00:39;;;;;;;4.25;1.70;;;14.00;1.00;;;;;;7396088;19;20477;-70
2023/08/08 05:03:09;;;;;;;2.20;1.77;;;14.10;1.00;;;;;;7400929;19;20015;-70
2023/08/08 05:05:39;;;;;;;3.70;1.67;;;14.20;1.00;;;;;;7394766;19;20098;-70
2023/08/08 05:08:09;;;;;;;4.03;1.70;;;15.60;1.00;;;;;;7399834;19;20090;-70
2023/08/08 05:10:42;;;;;;;1.80;1.40;;;17.30;1.00;;;;;;7396714;19;20011;-70
2023/08/08 05:13:13;;;;;;;4.05;1.58;;;18.20;1.00;;;;;;7399610;19;20426;-70
2023/08/08 05:15:42;;;;;;;3.13;1.40;;;17.20;1.00;;;;;;7390565;19;20363;-70
2023/08/08 05:18:12;;;;;;;2.70;1.35;;;17.00;1.00;;;;;;7389685;19;20061;-69
2023/08/08 05:20:42;;;;;;;2.70;1.50;;;18.60;1.00;;;;;;7387784;19;20010;-70
2023/08/08 05:23:12;;;;;;;2.38;1.40;;;20.00;1.00;;;;;;7393360;19;20014;-70
2023/08/08 05:25:45;;;;;;;2.20;1.48;;;17.90;1.00;;;;;;7388701;19;20022;-69
2023/08/08 05:28:15;;;;;;;2.83;1.27;;;16.60;1.00;;;;;;7389650;19;20391;-68
2023/08/08 05:30:45;;;;;;;3.83;1.70;;;16.10;1.00;;;;;;7388152;19;20019;-70
2023/08/08 05:33:15;;;;;;;2.95;1.63;;;16.80;1.00;;;;;;7391634;19;20022;-69
2023/08/08 05:35:45;;;;;;;2.05;1.63;;;17.30;1.00;;;;;;7388055;19;20022;-69
2023/08/08 05:38:14;;;;;;;2.50;1.50;;;19.20;1.00;;;;;;7388366;19;20025;-68
2023/08/08 05:40:47;;;;;;;1.92;1.50;;;19.10;1.00;;;;;;7388126;19;20015;-71
2023/08/08 05:43:18;;;;;;;2.10;1.38;;;20.00;1.00;;;;;;7392498;19;20025;-69
2023/08/08 05:45:48;;;;;;;1.85;1.38;;;21.40;1.00;;;;;;7389986;19;20014;-70
2023/08/08 05:48:19;;;;;;;3.22;1.45;;;21.40;1.00;;;;;;7392275;19;20481;-69
2023/08/08 05:50:49;;;;;;;3.55;1.50;;;21.40;1.00;;;;;;7387179;19;20018;-69
2023/08/08 05:53:18;;;;;;;2.00;1.10;;;20.80;1.00;;;;;;7392346;19;20018;-69
2023/08/08 05:55:51;;;;;;;4.40;1.75;;;19.80;1.00;;;;;;7388981;19;20534;-69
2023/08/08 05:58:21;;;;;;;4.72;1.60;;;17.90;1.00;;;;;;7387020;19;20015;-69
2023/08/08 06:00:51;;;;;;;2.83;1.10;;;17.30;1.00;;;;;;7387522;19;20039;-69
2023/08/08 06:03:21;;;;;;;1.65;1.20;;;17.30;1.00;;;;;;7391194;19;20014;-69
2023/08/08 06:05:51;;;;;;;2.70;1.40;;;16.80;1.00;;;;;;7388013;19;20014;-69
2023/08/08 06:08:21;;;;;;;4.55;1.25;;;16.90;1.00;;;;;;7390435;19;20014;-70
2023/08/08 06:10:53;;;;;;;3.30;1.33;;;17.00;1.00;;;;;;7386069;19;20015;-70
2023/08/08 06:13:23;;;;;;;4.10;1.33;;;17.00;1.00;;;;;;7390211;19;20084;-70
2023/08/08 06:15:53;;;;;;;2.53;1.35;;;17.10;1.00;;;;;;7387484;19;20509;-69
2023/08/08 06:18:23;;;;;;;2.90;1.52;;;17.20;1.00;;;;;;7386898;19;20412;-70
2023/08/08 06:20:53;;;;;;;2.38;1.30;;;17.30;1.00;;;;;;7387047;19;20085;-69
2023/08/08 06:23:23;;;;;;;2.75;1.23;;;17.10;1.00;;;;;;7390172;19;20510;-70
2023/08/08 06:25:56;;;;;;;1.90;1.30;;;17.50;1.00;;;;;;7388307;19;20082;-70
2023/08/08 06:28:26;;;;;;;2.15;1.08;;;17.90;1.00;;;;;;7388439;19;20014;-70
2023/08/08 06:30:55;;;;;;;3.13;1.42;;;17.80;1.00;;;;;;7386605;19;20042;-70
2023/08/08 06:33:26;;;;;;;1.88;1.45;;;17.70;1.00;;;;;;7390612;19;20032;-70
2023/08/08 06:35:56;;;;;;;1.38;1.02;;;18.00;1.00;;;;;;7383778;19;20377;-70
2023/08/08 06:38:25;;;;;;;1.90;1.27;;;18.50;1.00;;;;;;7385464;19;20021;-70
2023/08/08 06:40:58;;;;;;;1.55;1.02;;;18.40;1.00;;;;;;7387165;19;20042;-70
2023/08/08 06:43:28;;;;;;;2.17;1.52;;;18.60;1.00;;;;;;7389343;19;20121;-69
2023/08/08 06:45:58;;;;;;;1.63;1.13;;;18.50;1.00;;;;;;7388935;19;20073;-70
2023/08/08 06:48:28;;;;;;;2.03;1.05;;;18.20;1.00;;;;;;7384944;19;20395;-70
2023/08/08 06:50:58;;;;;;;3.20;1.10;;;17.80;1.00;;;;;;7384258;19;20018;-70
2023/08/08 06:53:28;;;;;;;3.58;1.40;;;17.80;1.00;;;;;;7388124;19;20136;-69
2023/08/08 06:56:01;;;;;;;1.33;1.13;;;17.90;1.00;;;;;;7384519;19;20032;-70
2023/08/08 06:58:31;;;;;;;2.20;1.13;;;18.00;1.00;;;;;;7386453;19;20031;-69
2023/08/08 07:01:00;;;;;;;3.67;1.30;;;18.00;1.00;;;;;;7384453;19;20031;-69
2023/08/08 07:03:31;;;;;;;3.40;1.20;;;18.30;1.00;;;;;;7389472;19;20090;-70
2023/08/08 07:06:01;;;;;;;1.20;0.95;;;18.30;1.00;;;;;;7386225;19;20747;-69
2023/08/08 07:08:32;;;;;;;3.05;1.23;;;18.20;1.00;;;;;;7391265;19;20380;-69
2023/08/08 07:11:05;;;;;;;2.20;1.00;;;18.30;1.00;;;;;;7382957;19;20010;-70
2023/08/08 07:13:36;;;;;;;3.70;1.50;;;18.30;1.00;;;;;;7388483;19;20038;-69
2023/08/08 07:16:07;;;;;;;2.42;1.20;;;18.70;1.00;;;;;;7384593;19;20014;-71
2023/08/08 07:18:37;;;;;;;1.63;1.20;;;18.80;1.00;;;;;;7385782;19;20474;-70
2023/08/08 07:21:07;;;;;;;1.90;1.17;;;18.90;1.00;;;;;;7384442;19;20016;-71
2023/08/08 07:23:37;;;;;;;2.90;1.17;;;18.80;1.00;;;;;;7388038;19;20027;-70
2023/08/08 07:26:10;;;;;;;2.72;1.27;;;18.60;1.00;;;;;;7385074;19;20038;-68
2023/08/08 07:28:40;;;;;;;3.92;1.23;;;18.50;1.00;;;;;;7385339;19;20070;-69
2023/08/08 07:31:10;;;;;;;1.92;1.02;;;18.50;1.00;;;;;;7383157;19;20018;-69
2023/08/08 07:33:40;;;;;;;3.97;1.15;;;18.80;1.00;;;;;;7385086;19;20039;-70
2023/08/08 07:36:10;;;;;;;2.78;1.20;;;19.20;1.00;;;;;;7384985;19;20025;-69
2023/08/08 07:38:40;;;;;;;1.08;0.98;;;19.50;1.00;;;;;;7386736;19;20031;-69
2023/08/08 07:41:12;;;;;;;2.80;1.27;;;19.90;1.00;;;;;;7388251;19;20090;-70
2023/08/08 07:43:42;;;;;;;2.17;1.08;;;19.90;1.00;;;;;;7388144;19;20018;-70
2023/08/08 07:46:12;;;;;;;2.55;1.30;;;19.40;1.00;;;;;;7387791;19;20028;-70
2023/08/08 07:48:42;;;;;;;3.15;1.10;;;19.60;1.00;;;;;;7385866;19;20015;-70
2023/08/08 07:51:12;;;;;;;1.85;1.00;;;19.80;1.00;;;;;;7382119;19;20106;-70
2023/08/08 07:53:42;;;;;;;2.03;1.20;;;20.10;1.00;;;;;;7387384;19;20186;-70
2023/08/08 07:56:18;;;;;;;2.03;1.00;;;20.10;1.00;;;;;;7382520;19;20121;-69
2023/08/08 07:58:48;;;;;;;3.33;1.25;;;20.00;1.00;;;;;;7385405;19;20038;-70
2023/08/08 08:01:18;;;;;;;1.73;1.00;;;19.80;1.00;;;;;;7382592;19;20018;-70
2023/08/08 08:03:48;;;;;;;2.33;1.00;;;20.10;1.00;;;;;;7387095;19;20038;-70
2023/08/08 08:06:18;;;;;;;4.97;1.13;;;19.60;1.00;;;;;;7382828;19;20014;-70
2023/08/08 08:08:48;;;;;;;4.03;1.20;;;19.60;1.00;;;;;;7387206;19;20085;-70
2023/08/08 08:11:21;;;;;;;2.45;1.20;;;19.40;1.00;;;;;;7380655;19;20051;-70
2023/08/08 08:13:51;;;;;;;2.70;1.40;;;19.60;1.00;;;;;;7385703;19;20362;-69
2023/08/08 08:16:21;;;;;;;2.33;1.05;;;19.70;1.00;;;;;;7382778;19;20042;-69
2023/08/08 08:18:51;;;;;;;3.53;1.65;;;19.10;1.00;;;;;;7384343;19;20015;-71
2023/08/08 08:21:21;;;;;;;3.85;1.38;;;19.70;1.00;;;;;;7382110;19;20015;-70
2023/08/08 08:23:51;;;;;;;3.95;1.10;;;20.20;1.00;;;;;;7385275;19;20374;-69
2023/08/08 08:26:23;;;;;;;3.70;1.00;;;19.90;1.00;;;;;;7386882;19;20014;-69
2023/08/08 08:28:53;;;;;;;3.22;1.20;;;19.50;1.00;;;;;;7388340;19;20378;-69
2023/08/08 08:31:23;;;;;;;3.40;1.10;;;19.30;1.00;;;;;;7385101;19;20461;-69
2023/08/08 08:33:55;;;;;;;3.03;1.30;;;19.90;1.00;;;;;;7383354;19;20542;-70
2023/08/08 08:36:25;;;;;;;5.80;1.20;;;20.30;1.00;;;;;;7386055;19;20036;-70
2023/08/08 08:38:55;;;;;;;4.07;1.17;;;20.20;1.00;;;;;;7385312;19;20082;-70
2023/08/08 08:41:30;;;;;;;1.58;1.10;;;20.00;1.00;;;;;;7385792;19;20481;-70
2023/08/08 08:44:00;;;;;;;2.17;1.10;;;20.20;1.00;;;;;;7383793;19;20027;-70
2023/08/08 08:46:32;;;;;;;2.42;1.58;;;19.80;1.00;;;;;;7386111;19;20679;-70
2023/08/08 08:49:05;;;;;;;2.15;1.13;;;19.80;1.00;;;;;;7386784;19;20014;-70
2023/08/08 08:51:35;;;;;;;3.05;0.90;;;20.30;1.00;;;;;;7390190;19;20011;-71
2023/08/08 08:54:05;;;;;;;4.05;1.15;;;20.70;1.00;;;;;;7389800;19;20046;-71
2023/08/08 08:56:38;;;;;;;3.60;1.35;;;20.30;1.00;;;;;;7392916;19;20533;-71
2023/08/08 08:59:08;;;;;;;2.72;0.90;;;20.30;1.00;;;;;;7394555;19;20462;-71
2023/08/08 09:01:38;;;;;;;2.50;1.00;;;20.30;1.00;;;;;;7392064;19;20014;-70
2023/08/08 09:04:10;;;;;;;2.90;0.98;;;19.50;1.00;;;;;;7391812;19;20014;-70
2023/08/08 09:06:40;;;;;;;3.65;0.95;;;19.60;1.00;;;;;;7393238;19;20010;-71
2023/08/08 09:09:10;;;;;;;4.72;1.10;;;19.80;1.00;;;;;;7394162;19;20015;-71
2023/08/08 09:11:50;;;;;;;4.43;1.00;;;20.30;1.00;;;;;;7391895;19;20021;-71
2023/08/08 09:14:21;;;;;;;1.98;1.10;;;20.70;1.00;;;;;;7392545;19;20034;-71
2023/08/08 09:16:53;;;;;;;4.20;0.95;;;20.20;1.00;;;;;;7391911;19;20332;-71
2023/08/08 09:19:24;;;;;;;3.53;1.10;;;19.80;1.00;;;;;;7393835;19;20011;-72
2023/08/08 09:21:55;;;;;;;3.58;1.05;;;20.60;1.00;;;;;;7393902;19;20021;-72
2023/08/08 09:24:25;;;;;;;4.15;1.35;;;21.20;1.00;;;;;;7391435;19;20026;-72
2023/08/08 09:26:58;;;;;;;2.58;0.90;;;20.90;1.00;;;;;;7392978;19;20017;-72
2023/08/08 09:29:28;;;;;;;2.92;0.98;;;20.30;1.00;;;;;;7391425;19;20088;-72
2023/08/08 09:31:58;;;;;;;3.80;1.00;;;20.20;1.00;;;;;;7389619;19;20021;-71
2023/08/08 09:34:28;;;;;;;2.85;0.90;;;21.10;1.00;;;;;;7391824;19;20015;-71
2023/08/08 09:36:58;;;;;;;2.05;1.00;;;21.00;1.00;;;;;;7390048;19;20497;-71
2023/08/08 09:39:28;;;;;;;2.95;1.13;;;20.40;1.00;;;;;;7392846;19;20070;-71
2023/08/08 09:42:01;;;;;;;2.28;1.00;;;20.40;1.00;;;;;;7391698;19;20082;-71
2023/08/08 09:44:34;;;;;;;4.28;1.50;;;20.50;1.00;;;;;;7392754;19;20010;-70
2023/08/08 09:47:05;;;;;;;2.03;1.08;;;20.80;1.00;;;;;;7392259;19;20010;-71
2023/08/08 09:49:36;;;;;;;2.17;1.10;;;20.50;1.00;;;;;;7392710;19;20117;-71
2023/08/08 09:52:07;;;;;;;2.17;0.98;;;21.00;1.00;;;;;;7390891;19;20031;-71
2023/08/08 09:54:38;;;;;;;1.92;1.00;;;20.90;1.00;;;;;;7389784;19;20081;-71
2023/08/08 09:57:12;;;;;;;2.20;1.15;;;20.60;1.00;;;;;;7391102;19;20058;-71
2023/08/08 09:59:42;;;;;;;2.08;0.80;;;20.70;1.00;;;;;;7391963;19;20085;-71
2023/08/08 10:02:16;;;;;;;2.13;1.00;;;21.40;1.00;;;;;;7388606;19;20015;-71
2023/08/08 10:04:48;;;;;;;1.63;1.00;;;21.20;1.00;;;;;;7391418;19;20022;-71
2023/08/08 10:07:18;;;;;;;1.92;1.20;;;21.20;1.00;;;;;;7390538;19;20018;-71
2023/08/08 10:09:48;;;;;;;2.15;1.10;;;21.30;1.00;;;;;;7391989;19;20039;-71
2023/08/08 10:12:20;;;;;;;2.50;1.15;;;21.40;1.00;;;;;;7390507;19;20010;-71
2023/08/08 10:14:51;;;;;;;2.75;0.80;;;21.70;1.00;;;;;;7392246;19;20123;-72
2023/08/08 10:17:21;;;;;;;2.30;1.05;;;21.80;1.00;;;;;;7390562;19;20027;-72
2023/08/08 10:19:56;;;;;;;3.63;1.10;;;21.80;1.00;;;;;;7391289;19;20010;-71
2023/08/08 10:22:27;;;;;;;1.83;0.90;;;21.00;1.00;;;;;;7390074;19;20483;-71
2023/08/08 10:24:58;;;;;;;2.38;1.00;;;20.50;1.00;;;;;;7391011;19;20033;-70
2023/08/08 10:27:35;;;;;;;2.58;0.82;;;20.90;1.00;;;;;;7391054;19;20078;-71
2023/08/08 10:30:10;;;;;;;1.05;0.73;;;21.70;1.00;;;;;;7389437;19;20091;-71
2023/08/08 10:32:46;;;;;;;1.92;1.25;;;21.40;1.00;;;;;;7389796;19;20038;-72
2023/08/08 10:35:16;;;;;;;1.75;0.88;;;21.40;1.00;;;;;;7391200;19;20019;-71
2023/08/08 10:37:55;;;;;;;2.30;0.98;;;21.30;1.00;;;;;;7388862;19;20026;-71
2023/08/08 10:40:26;;;;;;;2.28;1.00;;;21.50;1.00;;;;;;7390635;19;20097;-71
2023/08/08 10:42:58;;;;;;;2.65;1.35;;;22.10;1.00;;;;;;7389306;19;20009;-71
2023/08/08 10:45:32;;;;;;;1.30;0.82;;;22.50;1.00;;;;;;7388525;19;20111;-71
2023/08/08 10:48:11;;;;;;;0.98;0.73;;;22.40;1.00;;;;;;7389606;19;20006;-71
2023/08/08 10:50:43;;;;;;;1.83;1.10;;;22.50;1.00;;;;;;7375034;19;20018;-71
2023/08/08 10:53:14;;;;;;;1.25;0.70;;;21.80;1.00;;;;;;7387499;19;20040;-72
2023/08/08 10:55:46;;;;;;;2.97;1.02;;;21.70;1.00;;;;;;7385553;19;20020;-72
2023/08/08 10:58:19;;;;;;;1.55;1.05;;;21.60;1.00;;;;;;7383645;19;20478;-71
2023/08/08 11:00:50;;;;;;;2.17;1.00;;;21.60;1.00;;;;;;7385064;19;20117;-71
2023/08/08 11:03:21;;;;;;;2.25;1.13;;;21.90;1.00;;;;;;7387050;19;20480;-72
2023/08/08 11:05:52;;;;;;;5.38;1.00;;;22.40;1.00;;;;;;7386002;19;20003;-70
2023/08/08 11:08:22;;;;;;;2.17;0.90;;;21.80;1.00;;;;;;7388682;19;20019;-72
2023/08/08 11:10:54;;;;;;;1.65;0.90;;;22.50;1.00;;;;;;7384581;19;20014;-71
2023/08/08 11:13:27;;;;;;;1.83;1.00;;;22.70;1.00;;;;;;7386324;19;20018;-70
2023/08/08 11:15:57;;;;;;;1.10;0.88;;;21.60;1.00;;;;;;7386169;19;20025;-71
2023/08/08 11:18:27;;;;;;;2.17;1.15;;;21.80;1.00;;;;;;7383208;19;20478;-71
2023/08/08 11:20:58;;;;;;;2.00;1.30;;;21.60;1.00;;;;;;7384250;19;20014;-70
2023/08/08 11:23:48;;;;;;;2.97;1.00;;;21.80;1.00;;;;;;7388940;19;20011;-72
2023/08/08 11:26:21;;;;;;;2.28;1.20;;;21.60;1.00;;;;;;7389707;19;20107;-71
2023/08/08 11:28:57;;;;;;;31.08;1.98;;;21.20;1.00;;;;;;7384906;19;20024;-71
2023/08/08 11:31:27;;;;;;;4.03;0.90;;;21.40;1.00;;;;;;7383633;19;20096;-71
2023/08/08 11:33:59;;;;;;;1.23;0.90;;;21.30;1.00;;;;;;7385255;19;20471;-71
2023/08/08 11:36:32;;;;;;;4.47;1.23;;;21.50;1.00;;;;;;7385533;19;20014;-72
2023/08/08 11:39:07;;;;;;;1.90;0.77;;;21.80;1.00;;;;;;7382309;19;20013;-73
2023/08/08 11:41:40;;;;;;;5.32;1.15;;;22.00;1.00;;;;;;7384283;19;20015;-72
2023/08/08 11:44:13;;;;;;;1.55;0.93;;;21.80;1.00;;;;;;7387147;19;20010;-71
2023/08/08 11:46:48;;;;;;;6.07;1.33;;;22.10;1.00;;;;;;7387927;19;20037;-70
2023/08/08 11:49:20;;;;;;;3.97;1.05;;;22.30;1.00;;;;;;7383791;19;20061;-72
2023/08/08 11:51:50;;;;;;;1.25;1.00;;;22.80;1.00;;;;;;7383560;19;20011;-71
2023/08/08 11:54:21;;;;;;;3.35;1.42;;;22.10;1.00;;;;;;7386210;19;20089;-72
2023/08/08 11:56:51;;;;;;;3.75;1.00;;;22.80;1.00;;;;;;7385285;19;20018;-72
2023/08/08 11:59:24;;;;;;;2.08;0.98;;;22.40;1.00;;;;;;7381218;19;20011;-72
2023/08/08 12:01:54;;;;;;;1.95;1.08;;;23.30;1.00;;;;;;7384550;19;20018;-73
2023/08/08 12:04:24;;;;;;;7.50;1.30;;;23.30;1.00;;;;;;7386468;19;20018;-71
2023/08/08 12:07:05;;;;;;;5.00;1.10;;;22.60;1.00;;;;;;7385031;19;20627;-71
2023/08/08 12:09:35;;;;;;;3.22;1.13;;;22.10;1.00;;;;;;7387544;19;20066;-70
2023/08/08 12:12:06;;;;;;;1.58;1.13;;;21.60;1.00;;;;;;7383723;19;20050;-71
2023/08/08 12:14:44;;;;;;;;;;;22.10;1.00;;;;;;7385946;19;20039;-70
2023/08/08 12:17:25;;;;;;;2.42;1.13;;;22.30;1.00;;;;;;7382686;19;19971;-71
2023/08/08 12:19:56;;;;;;;1.85;0.95;;;22.50;1.00;;;;;;7385448;19;20021;-70
2023/08/08 12:22:26;;;;;;;1.13;0.90;;;22.30;1.00;;;;;;7387036;19;20021;-71
2023/08/08 12:24:57;;;;;;;2.47;0.90;;;22.20;1.00;;;;;;7387945;19;20022;-71
2023/08/08 12:27:27;;;;;;;1.58;1.10;;;22.70;1.00;;;;;;7390425;19;20834;-71
2023/08/08 12:29:59;;;;;;;1.33;0.93;;;22.60;1.00;;;;;;7389266;19;20018;-70
2023/08/08 12:32:32;;;;;;;3.97;1.10;;;22.30;1.00;;;;;;7389700;19;20014;-69
2023/08/08 12:35:02;;;;;;;2.58;0.98;;;23.00;1.00;;;;;;7393357;19;20646;-71
2023/08/08 12:37:32;;;;;;;3.33;1.30;;;22.10;1.00;;;;;;7391738;19;20038;-71
2023/08/08 12:40:02;;;;;;;1.98;0.98;;;22.30;1.00;;;;;;7390010;19;20023;-71
2023/08/08 12:42:34;;;;;;;2.55;1.00;;;22.20;1.00;;;;;;7391016;19;20010;-71
2023/08/08 12:45:09;;;;;;;2.08;0.73;;;22.20;1.00;;;;;;7393612;19;20485;-70
2023/08/08 12:47:39;;;;;;;1.52;0.82;;;22.50;1.00;;;;;;7388612;19;20018;-72
2023/08/08 12:50:10;;;;;;;2.65;1.10;;;22.10;1.00;;;;;;7387842;19;20022;-71
2023/08/08 12:52:40;;;;;;;3.08;0.90;;;22.40;1.00;;;;;;7390031;19;20026;-71
2023/08/08 12:55:11;;;;;;;5.10;1.23;;;22.30;1.00;;;;;;7390617;19;20010;-70
2023/08/08 12:57:41;;;;;;;3.75;1.10;;;22.30;1.00;;;;;;7393267;19;20782;-72
2023/08/08 13:00:16;;;;;;;4.60;0.98;;;22.80;1.00;;;;;;7388355;19;20018;-71
2023/08/08 13:02:47;;;;;;;4.32;1.00;;;23.10;1.00;;;;;;7391421;19;20052;-71
2023/08/08 13:05:17;;;;;;;3.00;1.15;;;22.50;1.00;;;;;;7392799;19;20034;-70
2023/08/08 13:07:47;;;;;;;2.35;1.10;;;22.70;1.00;;;;;;7391595;19;20073;-72
2023/08/08 13:10:19;;;;;;;1.63;0.88;;;22.90;1.00;;;;;;7385270;19;20093;-71
2023/08/08 13:12:49;;;;;;;2.85;1.17;;;23.30;1.00;;;;;;7387469;19;20051;-71
2023/08/08 13:15:21;;;;;;;2.20;1.10;;;23.70;1.00;;;;;;7388633;19;20022;-70
2023/08/08 13:17:51;;;;;;;1.52;0.80;;;22.90;1.00;;;;;;7389783;19;20466;-72